Abernathy, Texas
Current Conditions -  °F | °C
As of 4:53 PM on Monday 24 Nov 2014 (Local Time) from KLBB Reporting Station
Broken Clouds Broken Clouds  
Wind Chill: 52°   Ceiling: 30000
Heat Index: 52°   Visibility: 10mi
Dew Point: 12°   Wind: 6mph
Humidity: 20%   Direction: 260°W
Pressure: 30.01"   Gusts: NA
Location:  33.83°N, 101.84°W
Report Text: KLBB 242253Z 26005KT 10SM FEW085 SCT240 BKN300 11/M11 A3001 RMK AO2 SLP160 T01111111
Loading
Personal Weather Stations






























Interactive Weather Map New forecast layout! Learn more

10-Day Weather Forecast

Advertisements
Track Severe Weather on mobile